Main page
METAR-TAF:

METAR-TAF

Airports :

Resolute Bay Airport

Resolute, Nunavut, Canada

latitude: 74-43N, longitude: 094-59W, elevation: 67 m

Current weather observation

The report was made 41 minutes ago, at 02:00 UTC
Wind 6 kt from the East/Northeast
Temperature -26°C
Humidity 76%
Pressure 1016 hPa
Visibility: 24.1 km
Few clouds at a height of 10000 ft
ice crystals

METAR: CYRB 090200Z 07006KT 15SM IC FEW100 M26/M29 A3001 RMK AS1 AS TR SLP175

Time: 20:41 (02:41 UTC)

Forecast

The report was made 3 hours and 3 minutes ago, at 23:38 UTC
Forecast valid from 09 at 00 UTC to 09 at 24 UTC
Wind 10 kt from the Northeast
Visibility: 10 km
Few clouds at a height of 2000 ft
ice crystals
Becoming
from 09 at 04 UTC to 09 at 06 UTC
Wind 15 kt from the Northeast

TAF: CYRB 082338Z 0900/0924 05010KT P6SM IC FEW020 BECMG 0904/0906 04015KT RMK NXT FCST BY 090600Z

Weather observations and forecasts of more than 4000 airports (METAR and TAF reports).

The available stations are represented by yellow and red dots on the map.

Hover mouse over dot to see the name of the station.

Then click to see weather observations and forecasts.

To change the map : click on the green buttons with a black cross to zoom in, on the green button with a dash to zoom out, or on the green arrows for adjacent maps.


METAR-TAF: